<?xml version="1.0" encoding="UTF-8" standalone="no" ?>
<gpx xmlns="http://www.topografix.com/GPX/1/1" xmlns:xsi="http://www.w3.org/2001/XMLSchema-instance" xsi:schemaLocation="http://www.topografix.com/GPX/1/1 http://www.topografix.com/GPX/1/1/gpx.xsd" version="1.1" creator="VisuGPX - https://www.visugpx.com">
  <metadata>
    <name>Suc Richard</name>
    <desc><![CDATA[9,5 Km; Dénivelé: 420 m; IBP: 50]]></desc>
  </metadata>
  <trk>
    <name><![CDATA[suc richard 9,5km x 420m]]></name>
    <extensions>
      <line xmlns="http://www.topografix.com/GPX/gpx_style/0/2">
        <width>4</width>
      </line>
    </extensions>
    <trkseg>
      <trkpt lat="45.30619" lon="4.11518">
        <ele>443.1</ele>
        <time>2025-12-02T15:38:10.039Z</time>
      </trkpt>
      <trkpt lat="45.30619" lon="4.11518">
        <ele>443.1</ele>
        <time>2025-12-30T10:46:28.329Z</time>
      </trkpt>
      <trkpt lat="45.30582" lon="4.11424">
        <ele>446.7</ele>
      </trkpt>
      <trkpt lat="45.30693" lon="4.11332">
        <ele>449.3</ele>
      </trkpt>
      <trkpt lat="45.30821" lon="4.11291">
        <ele>451.8</ele>
      </trkpt>
      <trkpt lat="45.30825" lon="4.11195">
        <ele>453.5</ele>
      </trkpt>
      <trkpt lat="45.30844" lon="4.11089">
        <ele>455.2</ele>
      </trkpt>
      <trkpt lat="45.30906" lon="4.1112">
        <ele>456.3</ele>
      </trkpt>
      <trkpt lat="45.30974" lon="4.10999">
        <ele>460.5</ele>
      </trkpt>
      <trkpt lat="45.30997" lon="4.10956">
        <ele>463.1</ele>
      </trkpt>
      <trkpt lat="45.31004" lon="4.1093">
        <ele>464.6</ele>
      </trkpt>
      <trkpt lat="45.31073" lon="4.10933">
        <ele>468.5</ele>
      </trkpt>
      <trkpt lat="45.31131" lon="4.10923">
        <ele>470.8</ele>
      </trkpt>
      <trkpt lat="45.31161" lon="4.10908">
        <ele>472.2</ele>
      </trkpt>
      <trkpt lat="45.31172" lon="4.10842">
        <ele>475.2</ele>
      </trkpt>
      <trkpt lat="45.31195" lon="4.10806">
        <ele>479.2</ele>
      </trkpt>
      <trkpt lat="45.31195" lon="4.10806">
        <ele>479.2</ele>
        <time>2025-12-02T15:38:10.039Z</time>
      </trkpt>
      <trkpt lat="45.31282" lon="4.10699">
        <ele>491.1</ele>
        <time>2025-12-02T15:38:22.869Z</time>
      </trkpt>
      <trkpt lat="45.31325" lon="4.10649">
        <ele>498.9</ele>
        <time>2025-12-02T15:38:29.090Z</time>
      </trkpt>
      <trkpt lat="45.31442" lon="4.10496">
        <ele>510.4</ele>
        <time>2025-12-02T15:38:46.772Z</time>
      </trkpt>
      <trkpt lat="45.31427" lon="4.10457">
        <ele>515.5</ele>
        <time>2025-12-02T15:38:50.338Z</time>
      </trkpt>
      <trkpt lat="45.31304" lon="4.10455">
        <ele>529.5</ele>
        <time>2025-12-02T15:39:04.111Z</time>
      </trkpt>
      <trkpt lat="45.3126" lon="4.10432">
        <ele>539.3</ele>
        <time>2025-12-02T15:39:09.378Z</time>
      </trkpt>
      <trkpt lat="45.31207" lon="4.10442">
        <ele>532.5</ele>
        <time>2025-12-02T15:39:15.394Z</time>
      </trkpt>
      <trkpt lat="45.31079" lon="4.10392">
        <ele>531.1</ele>
        <time>2025-12-02T15:39:30.078Z</time>
      </trkpt>
      <trkpt lat="45.31061" lon="4.10332">
        <ele>541</ele>
        <time>2025-12-02T15:39:35.346Z</time>
      </trkpt>
      <trkpt lat="45.30881" lon="4.10214">
        <ele>538.2</ele>
        <time>2025-12-02T15:39:57.381Z</time>
      </trkpt>
      <trkpt lat="45.30941" lon="4.10172">
        <ele>556.9</ele>
        <time>2025-12-02T15:40:05.048Z</time>
      </trkpt>
      <trkpt lat="45.30954" lon="4.10123">
        <ele>572</ele>
        <time>2025-12-02T15:40:09.382Z</time>
      </trkpt>
      <trkpt lat="45.31059" lon="4.10148">
        <ele>584.9</ele>
        <time>2025-12-02T15:40:21.299Z</time>
      </trkpt>
      <trkpt lat="45.31143" lon="4.10116">
        <ele>617.4</ele>
        <time>2025-12-02T15:40:31.583Z</time>
      </trkpt>
      <trkpt lat="45.31065" lon="4.10085">
        <ele>606.6</ele>
        <time>2025-12-02T15:40:40.675Z</time>
      </trkpt>
      <trkpt lat="45.31029" lon="4.10034">
        <ele>612.8</ele>
        <time>2025-12-02T15:40:46.409Z</time>
      </trkpt>
      <trkpt lat="45.30997" lon="4.09938">
        <ele>626.9</ele>
        <time>2025-12-02T15:40:54.784Z</time>
      </trkpt>
      <trkpt lat="45.30942" lon="4.09989">
        <ele>602.1</ele>
        <time>2025-12-02T15:41:02.543Z</time>
      </trkpt>
      <trkpt lat="45.30825" lon="4.09994">
        <ele>585.8</ele>
        <time>2025-12-02T15:41:15.647Z</time>
      </trkpt>
      <trkpt lat="45.30778" lon="4.09902">
        <ele>600.9</ele>
        <time>2025-12-02T15:41:24.687Z</time>
      </trkpt>
      <trkpt lat="45.30743" lon="4.09932">
        <ele>587.5</ele>
        <time>2025-12-02T15:41:29.443Z</time>
      </trkpt>
      <trkpt lat="45.30714" lon="4.09937">
        <ele>581.8</ele>
        <time>2025-12-02T15:41:32.804Z</time>
      </trkpt>
      <trkpt lat="45.30664" lon="4.09924">
        <ele>576</ele>
        <time>2025-12-02T15:41:38.493Z</time>
      </trkpt>
      <trkpt lat="45.30654" lon="4.09809">
        <ele>590.9</ele>
        <time>2025-12-02T15:41:47.622Z</time>
      </trkpt>
      <trkpt lat="45.30657" lon="4.09743">
        <ele>595.5</ele>
        <time>2025-12-02T15:41:52.865Z</time>
      </trkpt>
      <trkpt lat="45.30697" lon="4.09594">
        <ele>606.6</ele>
        <time>2025-12-02T15:42:05.323Z</time>
      </trkpt>
      <trkpt lat="45.30652" lon="4.0962">
        <ele>588.7</ele>
        <time>2025-12-02T15:42:10.946Z</time>
      </trkpt>
      <trkpt lat="45.30595" lon="4.0969">
        <ele>569.7</ele>
        <time>2025-12-02T15:42:19.617Z</time>
      </trkpt>
      <trkpt lat="45.30512" lon="4.09761">
        <ele>560.5</ele>
        <time>2025-12-02T15:42:30.406Z</time>
      </trkpt>
      <trkpt lat="45.30445" lon="4.09626">
        <ele>604.2</ele>
        <time>2025-12-02T15:42:44.008Z</time>
      </trkpt>
      <trkpt lat="45.30386" lon="4.09488">
        <ele>632.4</ele>
        <time>2025-12-02T15:42:56.951Z</time>
      </trkpt>
      <trkpt lat="45.3029" lon="4.09552">
        <ele>594.9</ele>
        <time>2025-12-02T15:43:09.300Z</time>
      </trkpt>
      <trkpt lat="45.30251" lon="4.09462">
        <ele>617.8</ele>
        <time>2025-12-02T15:43:17.889Z</time>
      </trkpt>
      <trkpt lat="45.30215" lon="4.09432">
        <ele>622.6</ele>
        <time>2025-12-02T15:43:22.497Z</time>
      </trkpt>
      <trkpt lat="45.30166" lon="4.09361">
        <ele>635.9</ele>
        <time>2025-12-02T15:43:30.426Z</time>
      </trkpt>
      <trkpt lat="45.30099" lon="4.09224">
        <ele>651.1</ele>
        <time>2025-12-02T15:43:43.536Z</time>
      </trkpt>
      <trkpt lat="45.3004" lon="4.09178">
        <ele>649.8</ele>
        <time>2025-12-02T15:43:51.026Z</time>
      </trkpt>
      <trkpt lat="45.30016" lon="4.09237">
        <ele>635.3</ele>
        <time>2025-12-02T15:43:56.584Z</time>
      </trkpt>
      <trkpt lat="45.30016" lon="4.09284">
        <ele>625.9</ele>
        <time>2025-12-02T15:44:00.327Z</time>
      </trkpt>
      <trkpt lat="45.30037" lon="4.09337">
        <ele>618.3</ele>
        <time>2025-12-02T15:44:05.212Z</time>
      </trkpt>
      <trkpt lat="45.29959" lon="4.09359">
        <ele>602.9</ele>
        <time>2025-12-02T15:44:14.188Z</time>
      </trkpt>
      <trkpt lat="45.29926" lon="4.09267">
        <ele>614.6</ele>
        <time>2025-12-02T15:44:22.309Z</time>
      </trkpt>
      <trkpt lat="45.29853" lon="4.09321">
        <ele>594.4</ele>
        <time>2025-12-02T15:44:31.635Z</time>
      </trkpt>
      <trkpt lat="45.298" lon="4.09363">
        <ele>588.9</ele>
        <time>2025-12-02T15:44:38.436Z</time>
      </trkpt>
      <trkpt lat="45.29756" lon="4.09402">
        <ele>585.4</ele>
        <time>2025-12-02T15:44:44.161Z</time>
      </trkpt>
      <trkpt lat="45.29702" lon="4.09396">
        <ele>584.8</ele>
        <time>2025-12-02T15:44:50.242Z</time>
      </trkpt>
      <trkpt lat="45.29674" lon="4.0938">
        <ele>585.7</ele>
        <time>2025-12-02T15:44:53.529Z</time>
      </trkpt>
      <trkpt lat="45.29629" lon="4.09382">
        <ele>581.3</ele>
        <time>2025-12-02T15:44:58.588Z</time>
      </trkpt>
      <trkpt lat="45.29584" lon="4.09428">
        <ele>569.9</ele>
        <time>2025-12-02T15:45:04.861Z</time>
      </trkpt>
      <trkpt lat="45.29543" lon="4.09535">
        <ele>555.2</ele>
        <time>2025-12-02T15:45:14.517Z</time>
      </trkpt>
      <trkpt lat="45.2949" lon="4.09692">
        <ele>539</ele>
        <time>2025-12-02T15:45:28.201Z</time>
      </trkpt>
      <trkpt lat="45.29447" lon="4.09801">
        <ele>530.4</ele>
        <time>2025-12-02T15:45:38.014Z</time>
      </trkpt>
      <trkpt lat="45.29398" lon="4.09756">
        <ele>530.8</ele>
        <time>2025-12-02T15:45:44.577Z</time>
      </trkpt>
      <trkpt lat="45.29346" lon="4.09709">
        <ele>529.8</ele>
        <time>2025-12-02T15:45:51.396Z</time>
      </trkpt>
      <trkpt lat="45.29223" lon="4.09713">
        <ele>523.2</ele>
        <time>2025-12-02T15:46:05.026Z</time>
      </trkpt>
      <trkpt lat="45.29169" lon="4.09763">
        <ele>518.4</ele>
        <time>2025-12-02T15:46:12.230Z</time>
      </trkpt>
      <trkpt lat="45.29112" lon="4.09763">
        <ele>515.4</ele>
        <time>2025-12-02T15:46:18.563Z</time>
      </trkpt>
      <trkpt lat="45.29051" lon="4.09793">
        <ele>512.5</ele>
        <time>2025-12-02T15:46:25.776Z</time>
      </trkpt>
      <trkpt lat="45.29025" lon="4.09796">
        <ele>511.6</ele>
        <time>2025-12-02T15:46:28.659Z</time>
      </trkpt>
      <trkpt lat="45.28978" lon="4.09785">
        <ele>509.9</ele>
        <time>2025-12-02T15:46:34.008Z</time>
      </trkpt>
      <trkpt lat="45.28926" lon="4.09619">
        <ele>517.6</ele>
        <time>2025-12-02T15:46:48.202Z</time>
      </trkpt>
      <trkpt lat="45.28934" lon="4.09742">
        <ele>508.2</ele>
        <time>2025-12-02T15:46:57.910Z</time>
      </trkpt>
      <trkpt lat="45.28937" lon="4.09796">
        <ele>507.2</ele>
        <time>2025-12-02T15:47:02.119Z</time>
      </trkpt>
      <trkpt lat="45.28949" lon="4.09875">
        <ele>512.2</ele>
        <time>2025-12-02T15:47:08.432Z</time>
      </trkpt>
      <trkpt lat="45.28885" lon="4.10042">
        <ele>531.1</ele>
        <time>2025-12-02T15:47:23.421Z</time>
      </trkpt>
      <trkpt lat="45.28839" lon="4.10179">
        <ele>530</ele>
        <time>2025-12-02T15:47:35.256Z</time>
      </trkpt>
      <trkpt lat="45.28882" lon="4.10216">
        <ele>538</ele>
        <time>2025-12-02T15:47:40.904Z</time>
      </trkpt>
      <trkpt lat="45.2893" lon="4.1034">
        <ele>537.6</ele>
        <time>2025-12-02T15:47:51.976Z</time>
      </trkpt>
      <trkpt lat="45.28977" lon="4.10427">
        <ele>534.4</ele>
        <time>2025-12-02T15:48:00.570Z</time>
      </trkpt>
      <trkpt lat="45.28989" lon="4.10471">
        <ele>530.1</ele>
        <time>2025-12-02T15:48:04.283Z</time>
      </trkpt>
      <trkpt lat="45.29035" lon="4.10533">
        <ele>523.3</ele>
        <time>2025-12-02T15:48:11.328Z</time>
      </trkpt>
      <trkpt lat="45.29157" lon="4.10589">
        <ele>509.8</ele>
        <time>2025-12-02T15:48:25.652Z</time>
      </trkpt>
      <trkpt lat="45.29245" lon="4.10582">
        <ele>508.3</ele>
        <time>2025-12-02T15:48:35.504Z</time>
      </trkpt>
      <trkpt lat="45.29313" lon="4.10577">
        <ele>509.7</ele>
        <time>2025-12-02T15:48:43.081Z</time>
      </trkpt>
      <trkpt lat="45.29401" lon="4.10598">
        <ele>507.1</ele>
        <time>2025-12-02T15:48:52.994Z</time>
      </trkpt>
      <trkpt lat="45.29463" lon="4.10622">
        <ele>505.1</ele>
        <time>2025-12-02T15:49:00.140Z</time>
      </trkpt>
      <trkpt lat="45.29584" lon="4.10672">
        <ele>503.7</ele>
        <time>2025-12-02T15:49:14.145Z</time>
      </trkpt>
      <trkpt lat="45.29651" lon="4.10668">
        <ele>496.6</ele>
        <time>2025-12-02T15:49:21.642Z</time>
      </trkpt>
      <trkpt lat="45.29702" lon="4.10721">
        <ele>489.2</ele>
        <time>2025-12-02T15:49:28.706Z</time>
      </trkpt>
      <trkpt lat="45.29823" lon="4.10704">
        <ele>478.6</ele>
        <time>2025-12-02T15:49:42.282Z</time>
      </trkpt>
      <trkpt lat="45.29893" lon="4.10699">
        <ele>473.7</ele>
        <time>2025-12-02T15:49:50.047Z</time>
      </trkpt>
      <trkpt lat="45.2994" lon="4.10711">
        <ele>472.1</ele>
        <time>2025-12-02T15:49:55.418Z</time>
      </trkpt>
      <trkpt lat="45.30004" lon="4.10708">
        <ele>472.5</ele>
        <time>2025-12-02T15:50:02.476Z</time>
      </trkpt>
      <trkpt lat="45.30059" lon="4.1075">
        <ele>471</ele>
        <time>2025-12-02T15:50:09.489Z</time>
      </trkpt>
      <trkpt lat="45.30065" lon="4.10792">
        <ele>469.4</ele>
        <time>2025-12-02T15:50:12.899Z</time>
      </trkpt>
      <trkpt lat="45.301" lon="4.10829">
        <ele>468.2</ele>
        <time>2025-12-02T15:50:17.678Z</time>
      </trkpt>
      <trkpt lat="45.30105" lon="4.10889">
        <ele>466</ele>
        <time>2025-12-02T15:50:22.442Z</time>
      </trkpt>
      <trkpt lat="45.30045" lon="4.10984">
        <ele>463.1</ele>
        <time>2025-12-02T15:50:32.460Z</time>
      </trkpt>
      <trkpt lat="45.30055" lon="4.11118">
        <ele>459.8</ele>
        <time>2025-12-02T15:50:43.061Z</time>
      </trkpt>
      <trkpt lat="45.30025" lon="4.11139">
        <ele>459</ele>
        <time>2025-12-02T15:50:46.827Z</time>
      </trkpt>
      <trkpt lat="45.30038" lon="4.1123">
        <ele>456.6</ele>
        <time>2025-12-02T15:50:54.117Z</time>
      </trkpt>
      <trkpt lat="45.3005" lon="4.11307">
        <ele>454.9</ele>
        <time>2025-12-02T15:51:00.306Z</time>
      </trkpt>
      <trkpt lat="45.3008" lon="4.11411">
        <ele>452.2</ele>
        <time>2025-12-02T15:51:09.095Z</time>
      </trkpt>
      <trkpt lat="45.30207" lon="4.11401">
        <ele>451.9</ele>
        <time>2025-12-02T15:51:23.267Z</time>
      </trkpt>
      <trkpt lat="45.30275" lon="4.11403">
        <ele>450.9</ele>
        <time>2025-12-02T15:51:30.784Z</time>
      </trkpt>
      <trkpt lat="45.30292" lon="4.11497">
        <ele>447.6</ele>
        <time>2025-12-02T15:51:38.397Z</time>
      </trkpt>
      <trkpt lat="45.30402" lon="4.11498">
        <ele>447.9</ele>
        <time>2025-12-02T15:51:50.696Z</time>
      </trkpt>
      <trkpt lat="45.30464" lon="4.11484">
        <ele>448</ele>
        <time>2025-12-02T15:51:57.695Z</time>
      </trkpt>
      <trkpt lat="45.30514" lon="4.11453">
        <ele>448.1</ele>
        <time>2025-12-02T15:52:03.758Z</time>
      </trkpt>
      <trkpt lat="45.3054" lon="4.11493">
        <ele>445.4</ele>
        <time>2025-12-02T15:52:08.055Z</time>
      </trkpt>
    </trkseg>
  </trk>
</gpx>